createdAt,value
2022-09-16T00:01:24.730Z,84.70
2022-09-16T00:03:56.424Z,84.77
2022-09-16T00:06:29.056Z,84.99
2022-09-16T00:09:03.056Z,85.53
2022-09-16T00:11:34.578Z,85.15
2022-09-16T00:14:02.646Z,84.82
2022-09-16T00:16:32.521Z,85.47
2022-09-16T00:19:02.011Z,85.72
2022-09-16T00:21:31.648Z,85.77
2022-09-16T00:23:59.135Z,85.27
2022-09-16T00:26:26.382Z,85.66
2022-09-16T00:28:53.525Z,86.33
2022-09-16T00:31:20.868Z,86.52
2022-09-16T00:33:48.022Z,86.94
2022-09-16T00:36:18.698Z,86.90
2022-09-16T00:38:46.165Z,86.74
2022-09-16T00:41:19.172Z,86.33
2022-09-16T00:43:50.105Z,86.90
2022-09-16T00:46:24.745Z,87.42
2022-09-16T00:48:52.373Z,87.28
2022-09-16T00:51:33.936Z,87.21
2022-09-16T00:54:04.914Z,87.49
2022-09-16T00:56:37.391Z,87.88
2022-09-16T00:59:19.318Z,87.24
2022-09-16T01:01:48.995Z,87.24
2022-09-16T01:04:29.263Z,87.50
2022-09-16T01:07:00.920Z,87.67
2022-09-16T01:09:31.156Z,86.78
2022-09-16T01:11:58.949Z,87.13
2022-09-16T01:14:51.087Z,86.81
2022-09-16T01:17:40.996Z,87.16
2022-09-16T01:20:14.197Z,87.27
2022-09-16T01:23:18.916Z,87.48
2022-09-16T01:25:58.318Z,87.77
2022-09-16T01:28:44.139Z,87.93
2022-09-16T01:31:44.450Z,87.59
2022-09-16T01:34:57.537Z,88.37
2022-09-16T01:38:08.131Z,88.58
2022-09-16T01:40:49.606Z,88.52
2022-09-16T01:43:26.046Z,88.55
2022-09-16T01:46:21.113Z,87.91
2022-09-16T01:49:01.525Z,88.17
2022-09-16T01:51:33.451Z,88.41
2022-09-16T01:57:08.678Z,88.03
2022-09-16T01:59:42.162Z,87.63
2022-09-16T02:02:27.402Z,87.29
2022-09-16T02:04:57.304Z,87.72
2022-09-16T02:07:37.122Z,88.07
2022-09-16T02:10:15.274Z,88.95
2022-09-16T02:12:45.312Z,88.80
2022-09-16T02:15:18.932Z,89.02
2022-09-16T02:17:56.155Z,88.98
2022-09-16T02:20:27.893Z,89.28
2022-09-16T02:23:22.617Z,89.47
2022-09-16T02:25:52.141Z,88.98
2022-09-16T02:28:26.240Z,88.31
2022-09-16T02:30:57.184Z,88.52
2022-09-16T02:33:31.498Z,89.17
2022-09-16T02:36:02.074Z,89.19
2022-09-16T02:38:41.096Z,89.01
2022-09-16T02:41:17.178Z,89.42
2022-09-16T02:43:47.935Z,88.97
2022-09-16T02:46:34.272Z,89.20
2022-09-16T02:49:18.368Z,89.56
2022-09-16T02:52:13.568Z,90.09
2022-09-16T02:54:59.402Z,89.82
2022-09-16T02:57:27.458Z,89.06
2022-09-16T02:59:54.854Z,89.03
2022-09-16T03:02:23.039Z,88.92
2022-09-16T03:05:19.446Z,89.04
2022-09-16T03:07:48.380Z,88.65
2022-09-16T03:10:16.489Z,88.13
2022-09-16T03:13:02.779Z,87.68
2022-09-16T03:15:45.770Z,87.99
2022-09-16T03:18:33.147Z,87.97
2022-09-16T03:21:17.339Z,87.28
2022-09-16T03:23:57.487Z,87.30
2022-09-16T03:26:30.484Z,87.30
2022-09-16T03:29:20.783Z,86.85
2022-09-16T03:31:57.536Z,86.97
2022-09-16T03:34:38.280Z,86.96
2022-09-16T03:37:13.265Z,87.43
2022-09-16T03:39:41.800Z,87.17
2022-09-16T03:42:11.520Z,87.03
2022-09-16T03:44:40.606Z,87.25
2022-09-16T03:47:08.471Z,87.37
2022-09-16T03:49:36.334Z,87.24
2022-09-16T03:52:05.737Z,86.82
2022-09-16T03:54:36.762Z,86.61
2022-09-16T03:57:05.614Z,85.75
2022-09-16T03:59:38.084Z,85.99
2022-09-16T04:02:05.985Z,87.09
2022-09-16T04:04:33.070Z,86.26
2022-09-16T04:07:00.395Z,86.11
2022-09-16T04:09:27.683Z,85.71
2022-09-16T04:11:55.261Z,84.91
2022-09-16T04:14:22.617Z,85.60
2022-09-16T04:16:50.213Z,85.77
2022-09-16T04:19:21.720Z,86.13
2022-09-16T04:21:52.332Z,85.73
2022-09-16T04:24:23.074Z,85.11
2022-09-16T04:26:56.588Z,84.98
2022-09-16T04:29:23.739Z,84.15
2022-09-16T04:31:51.327Z,84.17
2022-09-16T04:34:18.551Z,84.16
2022-09-16T04:36:45.877Z,84.73
2022-09-16T04:39:13.535Z,84.95
2022-09-16T04:41:41.659Z,85.19
2022-09-16T04:44:11.019Z,84.93
2022-09-16T04:46:38.378Z,84.49
2022-09-16T04:49:05.758Z,84.03
2022-09-16T04:51:33.165Z,83.78
2022-09-16T04:54:01.829Z,84.16
2022-09-16T04:56:32.345Z,84.33
2022-09-16T04:59:02.664Z,83.93
2022-09-16T05:01:32.854Z,83.87
2022-09-16T05:04:03.611Z,83.15
2022-09-16T05:06:34.695Z,81.92
2022-09-16T05:09:03.102Z,81.68
2022-09-16T05:11:36.793Z,81.06
2022-09-16T05:14:11.640Z,79.92
2022-09-16T05:16:46.628Z,79.02
2022-09-16T05:19:16.301Z,78.09
2022-09-16T05:21:43.683Z,76.98
2022-09-16T05:24:12.832Z,76.19
2022-09-16T05:26:44.710Z,75.62
2022-09-16T05:29:15.849Z,74.68
2022-09-16T05:31:45.070Z,73.83
2022-09-16T05:34:14.061Z,73.17
2022-09-16T05:36:43.290Z,73.02
2022-09-16T05:39:24.833Z,72.81
2022-09-16T05:41:58.278Z,73.55
2022-09-16T05:44:26.867Z,73.43
2022-09-16T05:46:54.707Z,73.42
2022-09-16T05:49:23.882Z,73.32
2022-09-16T05:51:52.342Z,73.46
2022-09-16T05:54:20.457Z,73.07
2022-09-16T05:56:48.039Z,72.29
2022-09-16T05:59:16.513Z,71.86
2022-09-16T06:01:45.436Z,70.67
2022-09-16T06:04:13.839Z,70.23
2022-09-16T06:06:43.472Z,68.64
2022-09-16T06:09:23.730Z,68.33
2022-09-16T06:11:56.580Z,68.98
2022-09-16T06:14:28.445Z,68.81
2022-09-16T06:16:56.301Z,67.95
2022-09-16T06:19:23.790Z,66.82
2022-09-16T06:21:50.883Z,64.87
2022-09-16T06:24:20.653Z,63.81
2022-09-16T06:26:49.470Z,61.24
2022-09-16T06:29:17.798Z,62.01
2022-09-16T06:31:45.222Z,61.26
2022-09-16T06:34:15.446Z,60.44
2022-09-16T06:36:45.288Z,58.32
2022-09-16T06:39:15.148Z,56.25
2022-09-16T06:41:42.434Z,55.02
2022-09-16T06:44:09.939Z,54.76
2022-09-16T06:46:37.971Z,53.92
2022-09-16T06:49:06.379Z,52.89
2022-09-16T06:51:34.996Z,53.08
2022-09-16T06:54:05.029Z,53.32
2022-09-16T06:56:34.231Z,53.23
2022-09-16T06:59:01.616Z,53.29
2022-09-16T07:01:30.684Z,52.09
2022-09-16T07:03:59.503Z,51.85
2022-09-16T07:09:17.888Z,51.86
2022-09-16T07:11:45.282Z,53.51
2022-09-16T07:14:12.554Z,52.64
2022-09-16T07:16:39.918Z,52.32
2022-09-16T07:19:10.308Z,51.73
2022-09-16T07:21:38.250Z,51.83
2022-09-16T07:24:05.752Z,51.60
2022-09-16T07:26:37.760Z,51.16
2022-09-16T07:29:07.865Z,51.54
2022-09-16T07:31:37.707Z,51.86
2022-09-16T07:34:07.061Z,51.65
2022-09-16T07:36:40.938Z,51.50
2022-09-16T07:39:09.210Z,50.97
2022-09-16T07:41:38.806Z,51.21
2022-09-16T07:44:07.933Z,51.62
2022-09-16T07:46:36.761Z,51.72
2022-09-16T07:49:07.119Z,51.96
2022-09-16T07:51:35.775Z,51.83
2022-09-16T07:54:09.798Z,52.25
2022-09-16T07:56:39.252Z,51.36
2022-09-16T07:59:08.356Z,51.09
2022-09-16T08:01:38.870Z,51.90
2022-09-16T08:04:08.729Z,51.61
2022-09-16T08:06:39.013Z,50.95
2022-09-16T08:09:15.571Z,51.98
2022-09-16T08:11:53.975Z,52.05
2022-09-16T08:14:21.054Z,51.53
2022-09-16T08:16:51.581Z,50.74
2022-09-16T08:19:20.578Z,51.08
2022-09-16T08:21:48.361Z,51.38
2022-09-16T08:24:17.050Z,52.31
2022-09-16T08:26:45.888Z,50.82
2022-09-16T08:29:14.042Z,51.60
2022-09-16T08:31:41.866Z,50.31
2022-09-16T08:34:11.974Z,50.82
2022-09-16T08:36:39.345Z,50.61
2022-09-16T08:39:06.666Z,51.02
2022-09-16T08:41:41.859Z,51.06
2022-09-16T08:44:14.918Z,51.84
2022-09-16T08:47:20.926Z,51.99
2022-09-16T08:49:51.196Z,51.75
2022-09-16T08:52:42.665Z,50.76
2022-09-16T08:55:16.582Z,51.23
2022-09-16T08:57:55.235Z,51.28
2022-09-16T09:00:22.778Z,49.35
2022-09-16T09:02:58.954Z,49.10
2022-09-16T09:05:42.428Z,49.20
2022-09-16T09:08:19.669Z,48.95
2022-09-16T09:10:47.091Z,48.74
2022-09-16T09:13:29.303Z,48.92
2022-09-16T09:16:25.398Z,48.55
2022-09-16T09:19:11.106Z,48.19
2022-09-16T09:22:02.556Z,48.23
2022-09-16T09:24:56.619Z,48.05
2022-09-16T09:27:30.128Z,47.65
2022-09-16T09:30:22.188Z,48.02
2022-09-16T09:32:55.342Z,47.06
2022-09-16T09:35:32.278Z,46.31
2022-09-16T09:38:44.500Z,47.29
2022-09-16T09:41:23.391Z,46.96
2022-09-16T09:43:53.434Z,46.88
2022-09-16T09:46:35.203Z,46.35
2022-09-16T09:49:19.818Z,45.86
2022-09-16T09:52:02.259Z,45.85
2022-09-16T09:54:34.539Z,46.68
2022-09-16T09:57:12.335Z,46.51
2022-09-16T10:00:16.540Z,46.46
2022-09-16T10:02:49.640Z,46.56
2022-09-16T10:05:23.145Z,45.84
2022-09-16T10:07:53.768Z,45.44
2022-09-16T10:10:24.151Z,45.42
2022-09-16T10:12:51.959Z,46.05
2022-09-16T10:15:30.245Z,46.10
2022-09-16T10:18:00.362Z,47.00
2022-09-16T10:20:38.536Z,46.23
2022-09-16T10:23:11.733Z,46.25
2022-09-16T10:25:39.242Z,45.21
2022-09-16T10:28:22.713Z,45.28
2022-09-16T10:30:55.250Z,45.10
2022-09-16T10:33:25.435Z,44.89
2022-09-16T10:36:06.400Z,44.90
2022-09-16T10:38:40.950Z,45.30
2022-09-16T10:41:15.719Z,45.27
2022-09-16T10:43:50.330Z,44.39
2022-09-16T10:46:19.226Z,44.67
2022-09-16T10:48:48.634Z,44.50
2022-09-16T10:51:28.215Z,45.07
2022-09-16T10:54:01.949Z,45.47
2022-09-16T10:56:33.274Z,45.06
2022-09-16T10:59:06.743Z,44.69
2022-09-16T11:01:43.243Z,43.71
2022-09-16T11:04:27.391Z,44.20
2022-09-16T11:07:06.863Z,44.08
2022-09-16T11:09:58.582Z,43.17
2022-09-16T11:13:06.900Z,44.28
2022-09-16T11:15:57.777Z,44.71
2022-09-16T11:18:55.107Z,44.78
2022-09-16T11:21:31.161Z,44.04
2022-09-16T11:24:44.462Z,44.35
2022-09-16T11:27:34.647Z,44.80
2022-09-16T11:30:16.313Z,44.34
2022-09-16T11:33:20.396Z,44.63
2022-09-16T11:36:10.292Z,44.75
2022-09-16T11:38:52.217Z,44.55
2022-09-16T11:41:28.570Z,44.79
2022-09-16T11:44:30.646Z,44.02
2022-09-16T11:47:26.261Z,44.19
2022-09-16T11:49:59.622Z,43.48
2022-09-16T11:52:47.924Z,43.61
2022-09-16T11:55:43.157Z,43.82
2022-09-16T11:58:45.567Z,44.42
2022-09-16T12:01:32.334Z,44.04
2022-09-16T12:04:03.086Z,44.09
2022-09-16T12:06:39.740Z,43.58
2022-09-16T12:09:14.138Z,43.40
2022-09-16T12:11:53.859Z,43.54
2022-09-16T12:14:37.805Z,43.27
2022-09-16T12:17:17.425Z,42.55
2022-09-16T12:20:08.210Z,42.68
2022-09-16T12:22:43.968Z,42.96
2022-09-16T12:25:19.572Z,43.12
2022-09-16T12:27:59.739Z,42.52
2022-09-16T12:30:37.995Z,43.17
2022-09-16T12:33:22.182Z,43.11
2022-09-16T12:35:55.441Z,43.26
2022-09-16T12:38:23.334Z,42.97
2022-09-16T12:40:57.187Z,43.12
2022-09-16T12:43:49.213Z,43.38
2022-09-16T12:46:42.396Z,43.73
2022-09-16T12:49:25.055Z,43.74
2022-09-16T12:52:19.570Z,44.25
2022-09-16T12:55:21.007Z,44.82
2022-09-16T12:58:03.949Z,44.80
2022-09-16T13:01:02.101Z,44.59
2022-09-16T13:03:32.573Z,44.34
2022-09-16T13:06:12.745Z,44.66
2022-09-16T13:08:40.465Z,45.15
2022-09-16T13:12:09.510Z,45.58
2022-09-16T13:14:24.791Z,45.71
2022-09-16T13:16:56.328Z,45.54
2022-09-16T13:19:37.265Z,45.81
2022-09-16T13:22:16.355Z,46.11
2022-09-16T13:24:50.363Z,46.43
2022-09-16T13:27:30.302Z,46.81
2022-09-16T13:30:35.955Z,46.96
2022-09-16T13:33:24.008Z,48.71
2022-09-16T13:36:13.563Z,51.51
2022-09-16T13:38:48.508Z,50.91
2022-09-16T13:41:39.324Z,55.39
2022-09-16T13:44:38.569Z,58.08
2022-09-16T13:47:12.262Z,59.78
2022-09-16T13:49:39.605Z,59.62
2022-09-16T13:52:19.643Z,59.98
2022-09-16T13:55:11.717Z,59.88
2022-09-16T13:57:45.493Z,60.24
2022-09-16T14:00:17.535Z,60.69
2022-09-16T14:03:07.491Z,61.52
2022-09-16T14:06:10.817Z,60.14
2022-09-16T14:08:44.645Z,61.04
2022-09-16T14:12:04.414Z,61.42
2022-09-16T14:14:47.016Z,62.55
2022-09-16T14:17:28.059Z,62.48
2022-09-16T14:20:00.641Z,62.66
2022-09-16T14:22:29.431Z,63.27
2022-09-16T14:25:06.795Z,63.81
2022-09-16T14:27:40.554Z,64.25
2022-09-16T14:30:19.765Z,64.47
2022-09-16T14:32:49.042Z,65.07
2022-09-16T14:35:20.963Z,64.89
2022-09-16T14:37:53.495Z,64.92
2022-09-16T14:40:25.071Z,65.05
2022-09-16T14:42:57.190Z,65.56
2022-09-16T14:45:24.812Z,65.18
2022-09-16T14:47:55.161Z,65.15
2022-09-16T14:51:18.422Z,65.69
2022-09-16T14:53:41.662Z,65.59
2022-09-16T14:56:20.019Z,65.74
2022-09-16T14:58:48.715Z,65.34
2022-09-16T15:01:25.987Z,65.13
2022-09-16T15:04:09.479Z,65.37
2022-09-16T15:06:46.091Z,65.45
2022-09-16T15:09:20.530Z,64.79
2022-09-16T15:11:54.629Z,64.78
2022-09-16T15:14:22.086Z,65.07
2022-09-16T15:17:00.865Z,64.74
2022-09-16T15:19:38.129Z,64.27
2022-09-16T15:22:09.596Z,64.13
2022-09-16T15:24:40.401Z,64.34
2022-09-16T15:27:08.577Z,64.86
2022-09-16T15:29:49.615Z,65.03
2022-09-16T15:32:24.146Z,65.77
2022-09-16T15:35:23.840Z,65.61
2022-09-16T15:37:53.686Z,65.78
2022-09-16T15:40:31.736Z,65.55
2022-09-16T15:43:11.214Z,64.28
2022-09-16T15:45:41.537Z,64.02
2022-09-16T15:48:17.667Z,63.27
2022-09-16T15:50:53.869Z,63.76
2022-09-16T15:53:30.643Z,64.04
2022-09-16T15:56:04.815Z,63.71
2022-09-16T15:59:05.132Z,64.26
2022-09-16T16:01:53.095Z,64.17
2022-09-16T16:04:32.614Z,64.45
2022-09-16T16:07:02.695Z,64.59
2022-09-16T16:09:29.824Z,64.53
2022-09-16T16:12:11.942Z,64.14
2022-09-16T16:14:41.197Z,64.00
2022-09-16T16:17:18.096Z,64.31
2022-09-16T16:19:47.780Z,65.01
2022-09-16T16:22:16.145Z,65.27
2022-09-16T16:24:44.102Z,65.67
2022-09-16T16:27:11.299Z,66.40
2022-09-16T16:29:39.197Z,66.65
2022-09-16T16:32:14.495Z,66.29
2022-09-16T16:34:47.631Z,66.59
2022-09-16T16:37:40.382Z,66.98
2022-09-16T16:40:06.314Z,67.30
2022-09-16T16:42:34.163Z,67.66
2022-09-16T16:45:01.977Z,67.42
2022-09-16T16:47:31.464Z,67.39
2022-09-16T16:50:00.503Z,68.14
2022-09-16T16:52:35.427Z,67.94
2022-09-16T16:55:03.098Z,67.97
2022-09-16T16:57:30.658Z,68.39
2022-09-16T16:59:57.822Z,68.57
2022-09-16T17:02:26.030Z,69.08
2022-09-16T17:04:54.049Z,69.27
2022-09-16T17:07:26.522Z,69.75
2022-09-16T17:09:54.518Z,69.96
2022-09-16T17:12:22.061Z,70.40
2022-09-16T17:14:49.573Z,70.37
2022-09-16T17:17:16.782Z,70.14
2022-09-16T17:19:44.050Z,69.89
2022-09-16T17:22:11.483Z,69.44
2022-09-16T17:24:39.431Z,69.83
2022-09-16T17:27:07.117Z,69.72
2022-09-16T17:29:34.606Z,69.99
2022-09-16T17:32:03.440Z,70.69
2022-09-16T17:34:31.409Z,71.13
2022-09-16T17:36:58.926Z,70.94
2022-09-16T17:39:26.596Z,70.96
2022-09-16T17:41:56.774Z,71.14
2022-09-16T17:44:24.991Z,71.07
2022-09-16T17:46:52.591Z,71.57
2022-09-16T17:49:22.319Z,71.90
2022-09-16T17:51:51.296Z,72.30
2022-09-16T17:54:19.557Z,72.42
2022-09-16T17:56:49.801Z,72.49
2022-09-16T17:59:18.418Z,72.33
2022-09-16T18:01:46.399Z,71.68
2022-09-16T18:04:14.108Z,71.90
2022-09-16T18:06:46.252Z,72.17
2022-09-16T18:09:16.303Z,72.75
2022-09-16T18:11:44.881Z,73.08
2022-09-16T18:14:13.663Z,73.04
2022-09-16T18:16:43.741Z,73.33
2022-09-16T18:19:11.349Z,73.64
2022-09-16T18:21:38.885Z,73.80
2022-09-16T18:24:11.370Z,74.03
2022-09-16T18:26:40.761Z,74.48
2022-09-16T18:29:11.352Z,75.10
2022-09-16T18:31:41.288Z,75.55
2022-09-16T18:34:09.011Z,75.88
2022-09-16T18:36:37.779Z,75.59
2022-09-16T18:39:07.352Z,76.56
2022-09-16T18:41:37.204Z,76.62
2022-09-16T18:44:07.758Z,76.63
2022-09-16T18:46:38.025Z,77.06
2022-09-16T18:49:06.607Z,78.25
2022-09-16T18:51:39.930Z,78.40
2022-09-16T18:54:18.440Z,78.84
2022-09-16T18:56:46.063Z,79.93
2022-09-16T18:59:22.501Z,80.20
2022-09-16T19:02:04.255Z,80.28
2022-09-16T19:04:37.255Z,81.19
2022-09-16T19:07:08.486Z,81.58
2022-09-16T19:09:39.747Z,81.57
2022-09-16T19:12:11.823Z,82.08
2022-09-16T19:14:40.077Z,81.74
2022-09-16T19:17:07.993Z,82.31
2022-09-16T19:19:35.685Z,82.36
2022-09-16T19:22:06.119Z,83.00
2022-09-16T19:24:34.202Z,83.71
2022-09-16T19:27:01.580Z,83.54
2022-09-16T19:29:28.635Z,84.05
2022-09-16T19:31:58.530Z,83.97
2022-09-16T19:34:25.833Z,84.21
2022-09-16T19:36:56.173Z,84.90
2022-09-16T19:39:24.115Z,84.96
2022-09-16T19:42:03.178Z,85.84
2022-09-16T19:44:30.951Z,86.27
2022-09-16T19:46:58.282Z,86.04
2022-09-16T19:49:25.644Z,86.28
2022-09-16T19:51:53.447Z,86.51
2022-09-16T19:54:24.038Z,86.38
2022-09-16T19:56:51.841Z,87.06
2022-09-16T19:59:20.065Z,87.63
2022-09-16T20:01:47.987Z,88.10
2022-09-16T20:04:19.675Z,87.89
2022-09-16T20:06:48.329Z,87.66
2022-09-16T20:09:17.119Z,86.54
2022-09-16T20:11:49.337Z,86.26
2022-09-16T20:14:21.109Z,86.31
2022-09-16T20:16:49.678Z,86.70
2022-09-16T20:19:18.808Z,87.87
2022-09-16T20:22:06.310Z,88.62
2022-09-16T20:24:33.368Z,88.46
2022-09-16T20:29:44.470Z,89.18
2022-09-16T20:32:12.263Z,89.31
2022-09-16T20:34:39.620Z,89.52
2022-09-16T20:37:06.987Z,89.82
2022-09-16T20:39:34.206Z,90.04
2022-09-16T20:42:01.572Z,89.98
2022-09-16T20:44:28.723Z,90.26
2022-09-16T20:46:55.967Z,90.86
2022-09-16T20:49:24.675Z,90.60
2022-09-16T20:51:52.458Z,91.19
2022-09-16T20:57:00.803Z,91.34
2022-09-16T20:59:28.214Z,91.85
2022-09-16T21:01:56.315Z,92.18
2022-09-16T21:04:23.430Z,91.96
2022-09-16T21:06:53.457Z,91.69
2022-09-16T21:09:24.106Z,91.45
2022-09-16T21:11:52.267Z,92.08
2022-09-16T21:14:22.499Z,92.64
2022-09-16T21:16:49.673Z,93.48
2022-09-16T21:19:18.934Z,94.24
2022-09-16T21:21:50.089Z,93.77
2022-09-16T21:24:18.162Z,93.69
2022-09-16T21:26:46.206Z,94.02
2022-09-16T21:29:16.069Z,93.68
2022-09-16T21:31:43.695Z,93.21
2022-09-16T21:34:14.243Z,93.63
2022-09-16T21:36:41.986Z,93.42
2022-09-16T21:39:09.115Z,94.31
2022-09-16T21:41:36.979Z,94.37
2022-09-16T21:44:04.292Z,94.50
2022-09-16T21:46:37.111Z,94.83
2022-09-16T21:49:04.330Z,94.49
2022-09-16T21:51:35.800Z,94.28
2022-09-16T21:54:05.100Z,94.16
2022-09-16T21:56:32.862Z,93.83
2022-09-16T21:59:00.279Z,93.92
2022-09-16T22:01:30.418Z,94.12
2022-09-16T22:04:03.801Z,93.86
2022-09-16T22:06:31.977Z,94.09
2022-09-16T22:09:01.570Z,94.14
2022-09-16T22:11:31.915Z,94.03
2022-09-16T22:14:00.817Z,94.70
2022-09-16T22:16:34.108Z,94.71
2022-09-16T22:19:04.371Z,94.58
2022-09-16T22:21:33.301Z,94.21
2022-09-16T22:24:02.068Z,94.59
2022-09-16T22:26:30.653Z,94.78
2022-09-16T22:28:58.771Z,94.82
2022-09-16T22:31:28.665Z,96.02
2022-09-16T22:33:58.600Z,96.21
2022-09-16T22:36:31.150Z,96.50
2022-09-16T22:39:01.484Z,96.40
2022-09-16T22:41:29.360Z,96.52
2022-09-16T22:43:56.777Z,96.01
2022-09-16T22:46:29.370Z,94.54
2022-09-16T22:48:58.089Z,94.90
2022-09-16T22:51:25.894Z,95.69
2022-09-16T22:53:54.369Z,96.34
2022-09-16T22:56:25.131Z,96.91
2022-09-16T22:58:56.985Z,96.72
2022-09-16T23:01:27.180Z,96.12
2022-09-16T23:03:58.297Z,95.22
2022-09-16T23:06:26.245Z,95.85
2022-09-16T23:09:13.119Z,96.07
2022-09-16T23:11:40.432Z,96.41
2022-09-16T23:14:10.825Z,96.04
2022-09-16T23:16:38.547Z,95.73
2022-09-16T23:19:08.614Z,95.56
2022-09-16T23:21:37.076Z,96.11
2022-09-16T23:24:06.447Z,96.31
2022-09-16T23:26:37.076Z,96.80
2022-09-16T23:29:08.351Z,96.65
2022-09-16T23:31:42.620Z,97.41
2022-09-16T23:34:16.270Z,97.25
2022-09-16T23:36:44.163Z,97.33
2022-09-16T23:39:13.951Z,97.55
2022-09-16T23:41:42.683Z,97.66
2022-09-16T23:44:13.943Z,97.79
2022-09-16T23:46:42.052Z,97.27
2022-09-16T23:49:10.251Z,97.40
2022-09-16T23:51:37.728Z,97.27
2022-09-16T23:54:05.518Z,97.56
2022-09-16T23:56:33.066Z,98.62
2022-09-16T23:59:01.121Z,98.69
